logo
Rechercher aéroport 
image banner adimage banner adimage banner ad
image banner ad

HKDA - Dadaab

Situé à Dadaab, Kenya

ICAO - , IATA -

Données fournies par Airmate  

Information générale

Coordonnées: N0°3'30" E40°19'4"
Élévation : 360 feet MSL.
Variation magnétique : 0° East
Voir autres Aéroports à North-Eastern Province

Données opérationnelles

Special qualification required
Heure actuelle UTC:
Heure actuelle locale:
Météo à : - ( 0 km )
METAR: ROTM 290856Z 09009KT 9999 SCT020 SCT100 25/22 A2976 RMK SLP078 T02540217 54000
Voir NOTAMs / SUP AIP / TFR affectant cet aéroport [VIEW]
Fréquences de communication: [VIEW]

Pistes:

Identifiant RWYQFULongueur (ft)Largeur (ft)SurfaceLDA (ft)
13128°456971ASPH
31308°456971ASPH

Coordonnées de l'aéroport

Adresse: Dadaab Kenya

Vue satellite de HKDA